Time;durP1;ratioP1;P1;durP2;ratioP2;P2;SDS_P1;SDS_P2;PMS_P1;PMS_P2;Temp;Humidity;BMP_temperature;BMP_pressure;BME280_temperature;BME280_humidity;BME280_pressure;Samples;Min_cycle;Max_cycle;Signal;HPM_P1;HPM_P2
2022/08/13 00:00:45;;;;;;;;;4.00;4.00;;;;;20.62;35.19;100009.13;5137436;27;9531;-61
2022/08/13 00:03:14;;;;;;;;;4.00;3.20;;;;;20.60;35.13;99998.47;5138885;27;8845;-61
2022/08/13 00:06:08;;;;;;;;;4.00;3.20;;;;;20.59;35.03;100004.91;5119431;28;8999;-62
2022/08/13 00:08:55;;;;;;;;;4.00;4.00;;;;;20.57;35.32;100009.66;5119335;28;8843;-61
2022/08/13 00:14:29;;;;;;;;;1.80;1.80;;;;;20.56;35.25;100010.66;5118420;28;8924;-62
2022/08/13 00:17:03;;;;;;;;;4.00;4.00;;;;;20.59;35.37;100006.75;5119098;28;8937;-62
2022/08/13 00:19:30;;;;;;;;;4.00;4.00;;;;;20.69;35.26;100008.19;5118638;28;9616;-62
2022/08/13 00:21:59;;;;;;;;;4.00;4.00;;;;;20.78;35.37;100009.78;5118881;28;8828;-61
2022/08/13 00:24:47;;;;;;;;;3.60;3.20;;;;;20.87;34.91;99997.03;5118701;28;8859;-61
2022/08/13 00:27:19;;;;;;;;;4.00;3.20;;;;;20.93;34.75;100000.69;5119269;28;8954;-61
2022/08/13 00:29:50;;;;;;;;;1.80;1.80;;;;;20.94;35.08;99999.66;5137901;27;8822;-61
2022/08/13 00:32:26;;;;;;;;;4.00;3.20;;;;;20.93;34.70;100003.38;5139305;27;8843;-61
2022/08/13 00:34:53;;;;;;;;;4.00;4.00;;;;;20.94;35.29;100005.06;5121328;27;8869;-61
2022/08/13 00:37:25;;;;;;;;;3.20;3.20;;;;;20.94;34.96;99996.09;5139184;27;8825;-61
2022/08/13 00:39:56;;;;;;;;;1.20;1.20;;;;;20.88;35.24;99991.44;5139105;27;8822;-60
2022/08/13 00:42:44;;;;;;;;;5.00;5.00;;;;;20.81;35.42;99993.19;5138569;27;9553;-62
2022/08/13 00:45:17;;;;;;;;;4.00;2.00;;;;;20.77;35.18;99997.25;5139215;27;8829;-61
2022/08/13 00:50:33;;;;;;;;;2.00;2.00;;;;;20.57;35.96;99989.88;5139250;27;8917;-60
2022/08/13 00:53:04;;;;;;;;;2.40;2.40;;;;;20.43;35.75;99988.84;5139375;27;9673;-62
2022/08/13 00:55:32;;;;;;;;;4.00;4.00;;;;;20.29;36.25;99984.22;5138943;27;8829;-61
2022/08/13 00:58:00;;;;;;;;;4.00;4.00;;;;;20.20;36.25;99990.72;5135455;27;9803;-61
2022/08/13 01:00:28;;;;;;;;;4.00;4.00;;;;;20.09;36.20;99982.22;5117921;28;8835;-62
2022/08/13 01:02:56;;;;;;;;;4.40;4.40;;;;;19.98;36.35;99980.75;5117916;28;8936;-61
2022/08/13 01:05:35;;;;;;;;;4.80;4.80;;;;;19.89;36.96;99989.91;5117966;28;8963;-62
2022/08/13 01:08:08;;;;;;;;;4.20;4.20;;;;;19.80;36.78;99991.00;5118522;28;8836;-61
2022/08/13 01:10:41;;;;;;;;;2.40;2.40;;;;;19.71;36.96;99988.53;5118502;28;8824;-61
2022/08/13 01:13:25;;;;;;;;;7.20;5.80;;;;;19.62;37.27;99990.44;5116576;28;8839;-61
2022/08/13 01:15:59;;;;;;;;;5.40;4.80;;;;;19.54;37.42;99992.34;5118067;28;8928;-63
2022/08/13 01:18:28;;;;;;;;;4.60;4.60;;;;;19.47;37.09;99981.41;5120186;27;8828;-61
2022/08/13 01:21:02;;;;;;;;;4.60;4.60;;;;;19.40;37.53;99990.38;5139002;27;8832;-61
2022/08/13 01:23:36;;;;;;;;;4.20;4.20;;;;;19.34;37.68;99991.13;5139001;27;8810;-61
2022/08/13 01:26:10;;;;;;;;;4.60;4.60;;;;;19.28;37.79;99989.13;5138555;27;8960;-61
2022/08/13 01:28:39;;;;;;;;;4.00;4.00;;;;;19.22;37.36;99981.72;5138688;27;8906;-61
2022/08/13 01:31:09;;;;;;;;;4.20;4.20;;;;;19.16;37.64;99983.22;5138916;27;8837;-62
2022/08/13 01:33:45;;;;;;;;;4.00;4.00;;;;;19.11;37.67;99982.06;5139035;27;8829;-61
2022/08/13 01:36:17;;;;;;;;;7.00;5.40;;;;;19.06;37.96;99982.56;5137760;27;9531;-63
2022/08/13 01:39:06;;;;;;;;;6.25;6.00;;;;;19.02;37.83;99981.25;5136896;27;8838;-61
2022/08/13 01:41:45;;;;;;;;;4.80;4.80;;;;;18.98;38.20;99985.31;5138340;27;8849;-62
2022/08/13 01:44:21;;;;;;;;;4.75;4.75;;;;;18.92;37.95;99986.03;5138193;27;8936;-63
2022/08/13 01:52:28;;;;;;;;;4.50;4.50;;;;;18.75;38.63;99987.06;5138280;27;8860;-61
2022/08/13 01:55:01;;;;;;;;;5.00;5.00;;;;;18.69;38.94;99990.47;5137038;27;8941;-61
2022/08/13 01:57:33;;;;;;;;;4.00;4.00;;;;;18.64;38.29;99992.00;5136906;27;8843;-62
2022/08/13 02:00:21;;;;;;;;;6.75;6.25;;;;;18.57;38.69;99981.06;5138051;27;8913;-61
2022/08/13 02:02:54;;;;;;;;;4.00;4.00;;;;;18.53;38.68;99989.66;5138052;27;8856;-61
2022/08/13 02:05:23;;;;;;;;;5.25;5.25;;;;;18.46;39.00;99986.81;5137673;27;8895;-61
2022/08/13 02:08:11;;;;;;;;;4.75;4.75;;;;;18.41;39.01;99988.31;5137530;27;8853;-64
2022/08/13 02:10:39;;;;;;;;;5.75;4.25;;;;;18.38;38.88;99986.81;5137578;27;8858;-62
2022/08/13 02:13:08;;;;;;;;;6.00;4.50;;;;;18.33;39.16;99980.25;5135718;27;8825;-62
2022/08/13 02:15:36;;;;;;;;;6.00;4.00;;;;;18.29;38.67;99982.41;5137351;27;8854;-61
2022/08/13 02:18:07;;;;;;;;;6.00;6.00;;;;;18.27;39.29;99983.56;5137665;27;8858;-60
2022/08/13 02:20:39;;;;;;;;;4.00;4.00;;;;;18.24;39.14;99979.41;5137386;27;8826;-61
2022/08/13 02:23:08;;;;;;;;;4.00;3.50;;;;;18.22;39.00;99983.25;5137572;27;8960;-62
2022/08/13 02:25:36;;;;;;;;;4.25;4.25;;;;;18.20;39.46;99982.56;5137608;27;8830;-61
2022/08/13 02:28:04;;;;;;;;;4.25;4.25;;;;;18.17;39.03;99983.78;5137441;27;8847;-61
2022/08/13 02:30:47;;;;;;;;;6.00;6.00;;;;;18.14;39.40;99984.09;5137169;27;8814;-60
2022/08/13 02:33:21;;;;;;;;;5.25;5.25;;;;;18.12;39.61;99996.06;5136997;27;8856;-63
2022/08/13 02:35:52;;;;;;;;;5.75;5.75;;;;;18.07;39.93;99998.44;5137405;27;8923;-61
2022/08/13 02:38:20;;;;;;;;;6.00;5.75;;;;;18.05;39.48;100000.44;5137828;27;8817;-60
2022/08/13 02:43:46;;;;;;;;;8.50;7.00;;;;;17.92;39.86;100000.09;5123316;27;8874;-61
2022/08/13 02:46:26;;;;;;;;;5.75;4.50;;;;;17.87;39.88;99999.75;5116185;28;8854;-62
2022/08/13 02:48:55;;;;;;;;;7.50;6.50;;;;;17.81;40.08;99995.03;5116444;28;8828;-62
2022/08/13 02:51:23;;;;;;;;;5.00;5.00;;;;;17.77;40.38;99999.91;5116396;28;8938;-62
2022/08/13 02:54:11;;;;;;;;;6.75;6.75;;;;;17.76;40.36;100000.91;5117374;27;8828;-61
2022/08/13 02:56:39;;;;;;;;;6.50;6.00;;;;;17.74;40.00;100008.31;5116544;28;8920;-61
2022/08/13 02:59:10;;;;;;;;;6.00;5.50;;;;;17.72;40.49;100004.97;5116518;28;8828;-61
2022/08/13 03:01:58;;;;;;;;;9.00;8.50;;;;;17.68;39.76;100006.28;5118442;27;8863;-62
2022/08/13 03:04:26;;;;;;;;;8.50;6.75;;;;;17.65;40.57;100005.78;5136400;27;8830;-62
2022/08/13 03:06:59;;;;;;;;;5.50;5.50;;;;;17.60;40.23;100000.88;5137233;27;8829;-61
2022/08/13 03:09:28;;;;;;;;;9.50;7.50;;;;;17.57;40.62;100012.00;5137011;27;8826;-61
2022/08/13 03:11:55;;;;;;;;;6.00;6.00;;;;;17.53;40.66;100005.25;5136681;27;8818;-62
2022/08/13 03:14:26;;;;;;;;;9.00;9.00;;;;;17.49;40.36;100014.69;5136588;27;9479;-61
2022/08/13 03:16:54;;;;;;;;;9.00;9.00;;;;;17.45;40.62;100013.31;5136813;27;8884;-61
2022/08/13 03:19:23;;;;;;;;;9.00;7.00;;;;;17.41;41.16;100017.34;5136844;27;9467;-61
2022/08/13 03:21:51;;;;;;;;;9.00;9.00;;;;;17.36;41.16;100019.66;5136358;27;8822;-62
2022/08/13 03:24:19;;;;;;;;;7.00;7.00;;;;;17.35;40.79;100015.25;5130959;28;8843;-60
2022/08/13 03:26:58;;;;;;;;;7.50;4.50;;;;;17.30;41.27;100014.91;5116476;28;8835;-61
2022/08/13 03:29:26;;;;;;;;;9.00;8.50;;;;;17.26;40.84;100018.09;5115883;28;8900;-61
2022/08/13 03:32:14;;;;;;;;;7.00;7.00;;;;;17.20;40.98;100013.34;5115764;28;8848;-63
2022/08/13 03:34:42;;;;;;;;;6.00;6.00;;;;;17.13;41.23;100015.84;5116139;28;8823;-61
2022/08/13 03:37:10;;;;;;;;;6.75;6.75;;;;;17.07;41.35;100011.09;5119369;28;8850;-61
2022/08/13 03:39:40;;;;;;;;;6.50;6.00;;;;;17.00;41.63;100007.38;5120260;28;8828;-62
2022/08/13 03:42:08;;;;;;;;;4.25;4.25;;;;;16.96;41.42;100006.03;5120725;28;8982;-62
2022/08/13 03:44:38;;;;;;;;;6.50;6.25;;;;;16.90;41.88;99998.59;5120077;28;8978;-60
2022/08/13 03:47:06;;;;;;;;;4.00;3.00;;;;;16.89;41.95;100004.97;5120475;28;8993;-62
2022/08/13 03:49:54;;;;;;;;;9.00;7.00;;;;;16.86;41.57;100002.59;5119865;28;8854;-62
2022/08/13 03:52:22;;;;;;;;;8.00;7.00;;;;;16.82;42.14;100003.06;5119991;28;8824;-62
2022/08/13 03:55:02;;;;;;;;;7.00;7.00;;;;;16.78;41.77;100001.72;5129820;27;8849;-61
2022/08/13 03:57:30;;;;;;;;;8.50;8.00;;;;;16.73;42.12;100002.19;5139343;27;8863;-61
2022/08/13 04:00:18;;;;;;;;;8.50;7.25;;;;;16.69;41.96;100008.88;5140367;27;8830;-61
2022/08/13 04:02:46;;;;;;;;;9.00;9.00;;;;;16.68;42.43;100007.22;5140492;27;8834;-61
2022/08/13 04:05:16;;;;;;;;;8.00;6.75;;;;;16.67;42.47;100005.53;5140091;27;8832;-62
2022/08/13 04:08:04;;;;;;;;;9.00;8.00;;;;;16.69;41.94;100008.88;5140138;27;9508;-61
2022/08/13 04:10:41;;;;;;;;;11.50;9.50;;;;;16.69;41.88;100008.03;5139971;27;8826;-63
2022/08/13 04:13:20;;;;;;;;;6.00;6.00;;;;;16.66;42.53;100009.22;5140138;27;9518;-61
2022/08/13 04:16:08;;;;;;;;;8.50;7.00;;;;;16.64;41.99;100005.81;5139617;27;8849;-60
2022/08/13 04:18:36;;;;;;;;;7.00;7.00;;;;;16.64;42.57;100007.69;5139734;27;8855;-61
2022/08/13 04:21:04;;;;;;;;;5.50;5.50;;;;;16.64;42.27;100013.06;5140184;27;8836;-62
2022/08/13 04:23:34;;;;;;;;;4.00;4.00;;;;;16.62;42.01;100007.00;5139103;27;8834;-62
2022/08/13 04:26:06;;;;;;;;;7.50;7.50;;;;;16.60;42.13;100004.47;5119141;28;8827;-61
2022/08/13 04:28:34;;;;;;;;;8.50;7.00;;;;;16.61;42.23;100005.28;5119110;28;8958;-62
2022/08/13 04:31:02;;;;;;;;;7.25;6.75;;;;;16.61;42.17;100003.47;5118772;28;8866;-62
2022/08/13 04:33:34;;;;;;;;;9.25;7.00;;;;;16.61;42.28;100008.84;5118731;28;8828;-62
2022/08/13 04:36:22;;;;;;;;;8.00;7.50;;;;;16.61;42.19;99998.09;5104878;28;8839;-61
2022/08/13 04:38:54;;;;;;;;;7.00;7.00;;;;;16.60;42.87;100004.47;5098424;28;8852;-62
2022/08/13 04:41:22;;;;;;;;;6.75;6.25;;;;;16.62;42.76;100007.84;5098348;28;8830;-62
2022/08/13 04:43:50;;;;;;;;;9.00;7.50;;;;;16.62;42.21;100002.47;5098496;28;8860;-61
2022/08/13 04:46:27;;;;;;;;;7.00;7.00;;;;;16.64;42.80;100005.00;5098168;28;8842;-61
2022/08/13 04:48:55;;;;;;;;;8.50;8.00;;;;;16.63;42.01;100004.13;5098706;28;8931;-62
2022/08/13 04:51:25;;;;;;;;;9.25;9.25;;;;;16.64;42.39;100002.31;5098178;28;9480;-61
2022/08/13 04:54:05;;;;;;;;;7.00;6.00;;;;;16.66;42.56;100006.53;5103617;28;9013;-61
2022/08/13 04:56:34;;;;;;;;;9.75;8.00;;;;;16.73;42.47;100006.72;5118287;28;8804;-62
2022/08/13 04:59:03;;;;;;;;;10.00;10.00;;;;;16.80;42.54;100003.22;5117975;28;8920;-60
2022/08/13 05:01:31;;;;;;;;;9.00;9.00;;;;;16.90;42.31;100005.81;5117406;28;8831;-62
2022/08/13 05:04:19;;;;;;;;;11.50;10.00;;;;;16.98;42.23;100009.38;5118148;28;8860;-61
2022/08/13 05:06:51;;;;;;;;;8.00;6.75;;;;;17.03;42.65;100009.75;5101998;28;8802;-61
2022/08/13 05:09:19;;;;;;;;;7.50;7.50;;;;;17.08;41.97;100014.66;5097490;28;8910;-61
2022/08/13 05:11:55;;;;;;;;;7.00;6.50;;;;;17.13;42.59;100017.69;5098142;28;9574;-60
2022/08/13 05:14:33;;;;;;;;;10.50;10.00;;;;;17.22;42.26;100020.25;5097628;28;8849;-61
2022/08/13 05:17:04;;;;;;;;;3.00;3.00;;;;;17.33;41.93;100019.94;5097883;28;8917;-61
2022/08/13 05:19:34;;;;;;;;;8.00;7.50;;;;;17.45;41.92;100018.69;5098186;28;8830;-60
2022/08/13 05:22:05;;;;;;;;;8.50;7.00;;;;;17.58;42.12;100027.16;5097105;28;8844;-62
2022/08/13 05:24:46;;;;;;;;;7.25;6.25;;;;;17.72;41.69;100017.56;5107621;28;8948;-62
2022/08/13 05:27:34;;;;;;;;;7.00;7.00;;;;;17.90;41.40;100018.31;5117834;28;8838;-61
2022/08/13 05:30:12;;;;;;;;;9.00;7.00;;;;;18.13;41.56;100024.72;5101118;28;8867;-60
2022/08/13 05:32:58;;;;;;;;;8.67;8.33;;;;;18.31;40.84;100020.03;5117260;28;8840;-60
2022/08/13 05:35:26;;;;;;;;;7.00;7.00;;;;;18.44;40.39;100014.97;5123639;27;8864;-62
2022/08/13 05:38:15;;;;;;;;;9.75;9.50;;;;;18.58;40.97;100016.97;5137735;27;8830;-62
2022/08/13 05:40:48;;;;;;;;;6.50;6.00;;;;;18.66;40.55;100016.97;5137932;27;8826;-62
2022/08/13 05:43:21;;;;;;;;;6.25;6.25;;;;;18.74;40.95;100022.34;5136953;27;8894;-65
2022/08/13 05:45:49;;;;;;;;;10.00;9.00;;;;;18.86;40.24;100023.66;5137305;27;8829;-63
2022/08/13 05:48:33;;;;;;;;;8.25;7.75;;;;;18.97;40.53;100013.31;5137174;27;8872;-61
2022/08/13 05:51:03;;;;;;;;;11.75;11.25;;;;;19.10;40.38;100019.03;5136661;27;8960;-62
2022/08/13 05:53:31;;;;;;;;;7.00;7.00;;;;;19.20;39.74;100029.66;5135318;27;8814;-62
2022/08/13 05:56:19;;;;;;;;;10.00;9.80;;;;;19.31;40.11;100022.00;5134817;27;8841;-62
2022/08/13 05:58:48;;;;;;;;;8.20;8.20;;;;;19.38;39.87;100023.00;5134805;27;8833;-62
2022/08/13 06:04:02;;;;;;;;;9.80;8.20;;;;;19.66;39.66;100024.19;5135578;27;9561;-63
2022/08/13 06:06:50;;;;;;;;;8.20;8.00;;;;;19.89;39.17;100018.81;5135422;27;8838;-62
2022/08/13 06:09:19;;;;;;;;;6.80;6.80;;;;;20.13;39.37;100013.25;5136375;27;8829;-62
2022/08/13 06:11:51;;;;;;;;;7.40;7.00;;;;;20.35;38.72;100015.97;5136987;27;8822;-61
2022/08/13 06:14:39;;;;;;;;;11.00;10.00;;;;;20.57;38.60;100017.78;5136225;27;8851;-66
2022/08/13 06:17:19;;;;;;;;;4.60;4.00;;;;;20.75;38.78;100019.09;5136436;27;8873;-62
2022/08/13 06:19:51;;;;;;;;;7.80;7.80;;;;;20.88;38.54;100017.66;5136622;27;8840;-61
2022/08/13 06:22:21;;;;;;;;;10.60;10.60;;;;;21.03;38.15;100019.38;5136530;27;8898;-61
2022/08/13 06:24:51;;;;;;;;;8.00;7.00;;;;;21.18;38.23;100021.03;5125251;27;8811;-62
2022/08/13 06:27:22;;;;;;;;;9.00;9.00;;;;;21.37;37.91;100023.16;5115594;28;8866;-62
2022/08/13 06:30:10;;;;;;;;;7.20;7.20;;;;;21.52;38.21;100021.28;5115257;28;8853;-62
2022/08/13 06:32:39;;;;;;;;;8.80;7.60;;;;;21.64;37.64;100021.63;5115360;28;8831;-62
2022/08/13 06:35:28;;;;;;;;;8.00;8.00;;;;;21.80;37.58;100022.25;5108796;28;8854;-62
2022/08/13 06:38:11;;;;;;;;;6.00;6.00;;;;;21.97;37.82;100021.00;5095441;28;8858;-62
2022/08/13 06:40:49;;;;;;;;;9.00;9.00;;;;;22.13;37.46;100019.91;5095570;28;8834;-64
2022/08/13 06:43:19;;;;;;;;;8.20;8.20;;;;;22.26;37.36;100025.47;5095637;28;8992;-64
2022/08/13 06:45:47;;;;;;;;;8.00;8.00;;;;;22.38;37.31;100023.91;5094904;28;8966;-62
2022/08/13 06:48:21;;;;;;;;;8.80;8.00;;;;;22.53;37.52;100013.84;5095189;28;8980;-62
2022/08/13 06:51:01;;;;;;;;;9.40;9.40;;;;;22.70;37.25;100016.03;5094487;28;8919;-63
2022/08/13 06:53:30;;;;;;;;;6.00;6.00;;;;;22.81;37.12;100025.53;5096909;28;8864;-62
2022/08/13 06:56:17;;;;;;;;;8.80;8.80;;;;;22.96;36.73;100015.41;5113226;28;9645;-62
2022/08/13 06:59:01;;;;;;;;;9.40;8.00;;;;;23.15;36.96;100025.59;5094439;28;8825;-62
2022/08/13 07:01:43;;;;;;;;;7.60;7.60;;;;;23.34;36.64;100024.84;5094838;28;8838;-62
2022/08/13 07:04:31;;;;;;;;;8.60;8.40;;;;;23.52;36.14;100028.69;5095208;28;8822;-62
2022/08/13 07:07:00;;;;;;;;;7.80;7.20;;;;;23.69;36.58;100024.59;5095756;28;8983;-61
2022/08/13 07:09:29;;;;;;;;;6.40;5.80;;;;;23.81;36.09;100022.13;5095704;28;8952;-62
2022/08/13 07:12:08;;;;;;;;;8.80;8.60;;;;;23.96;35.97;100020.13;5095219;28;8841;-62
2022/08/13 07:14:36;;;;;;;;;7.00;7.00;;;;;24.11;36.19;100018.88;5095284;28;9535;-62
2022/08/13 07:17:05;;;;;;;;;6.80;6.40;;;;;24.29;36.09;100012.84;5095761;28;8866;-62
2022/08/13 07:19:33;;;;;;;;;6.80;6.80;;;;;24.44;35.24;100011.56;5095327;28;8838;-62
2022/08/13 07:22:21;;;;;;;;;7.80;6.80;;;;;24.60;35.27;100013.94;5095001;28;8869;-62
2022/08/13 07:25:09;;;;;;;;;7.00;7.00;;;;;24.72;35.57;100012.25;5110732;28;8852;-62
2022/08/13 07:27:36;;;;;;;;;8.00;8.00;;;;;24.85;35.06;100011.38;5115535;28;8832;-63
2022/08/13 07:30:15;;;;;;;;;6.00;6.00;;;;;24.98;35.43;100014.94;5114987;28;8835;-63
2022/08/13 07:32:45;;;;;;;;;7.80;6.80;;;;;25.12;34.83;100013.03;5115230;28;8868;-62
2022/08/13 07:35:13;;;;;;;;;7.80;7.80;;;;;25.27;34.79;100014.50;5119733;27;8834;-62
2022/08/13 07:37:45;;;;;;;;;6.80;6.00;;;;;25.42;35.16;100008.78;5135962;27;8850;-62
2022/08/13 07:40:19;;;;;;;;;8.20;8.00;;;;;25.59;34.62;100011.63;5135916;27;8868;-62
2022/08/13 07:42:48;;;;;;;;;7.00;7.00;;;;;25.76;34.74;100011.97;5135818;27;8836;-62
2022/08/13 07:45:18;;;;;;;;;6.00;5.40;;;;;25.92;34.36;100012.34;5118324;27;8861;-63
2022/08/13 07:48:06;;;;;;;;;7.80;6.80;;;;;26.08;34.45;100009.09;5135407;27;8890;-62
2022/08/13 07:50:54;;;;;;;;;5.60;5.60;;;;;26.24;34.18;100014.03;5135887;27;8849;-63
2022/08/13 07:53:32;;;;;;;;;7.00;6.80;;;;;26.37;34.08;100013.09;5130202;27;8803;-62
2022/08/13 07:56:19;;;;;;;;;8.00;7.00;;;;;26.49;33.92;100014.06;5134458;27;8945;-62
2022/08/13 07:58:55;;;;;;;;;6.80;6.60;;;;;26.60;34.03;100016.09;5135380;27;8850;-62
2022/08/13 08:01:23;;;;;;;;;6.80;6.80;;;;;26.70;33.83;100008.25;5135552;27;8822;-61
2022/08/13 08:04:00;;;;;;;;;6.60;6.60;;;;;26.86;34.04;100015.88;5135391;27;8839;-61
2022/08/13 08:06:29;;;;;;;;;6.60;6.60;;;;;27.00;33.47;100012.78;5135890;27;8895;-61
2022/08/13 08:08:57;;;;;;;;;6.00;6.00;;;;;27.12;33.15;100016.44;5135416;27;8880;-62
2022/08/13 08:14:18;;;;;;;;;7.00;7.00;;;;;27.43;33.66;100008.13;5135497;27;8837;-61
2022/08/13 08:16:57;;;;;;;;;7.00;7.00;;;;;27.56;32.84;100021.63;5135080;27;8930;-62
2022/08/13 08:19:25;;;;;;;;;6.40;6.40;;;;;27.67;33.30;100009.06;5134999;27;8911;-62
2022/08/13 08:22:13;;;;;;;;;7.00;6.80;;;;;27.78;32.91;100011.91;5136502;27;8860;-62
2022/08/13 08:24:54;;;;;;;;;7.60;7.20;;;;;27.88;32.72;100012.22;5121856;27;8834;-62
2022/08/13 08:27:23;;;;;;;;;7.80;7.80;;;;;28.00;32.55;99993.91;5121619;27;8834;-62
2022/08/13 08:30:10;;;;;;;;;7.60;6.40;;;;;28.12;32.66;99997.53;5138881;27;8837;-62
2022/08/13 08:32:39;;;;;;;;;7.60;7.40;;;;;28.24;32.91;100005.78;5139213;27;8825;-61
2022/08/13 08:35:07;;;;;;;;;5.40;5.40;;;;;28.36;32.36;100003.94;5138745;27;8834;-61
2022/08/13 08:43:24;;;;;;;;;6.60;6.60;;;;;28.68;32.31;99997.91;5138566;27;8837;-61
2022/08/13 08:45:52;;;;;;;;;3.40;3.00;;;;;28.79;32.18;99999.84;5139050;27;8829;-61
2022/08/13 08:48:39;;;;;;;;;7.40;7.40;;;;;28.93;31.67;100004.03;5138322;27;8956;-61
2022/08/13 08:51:06;;;;;;;;;6.00;5.40;;;;;29.03;32.12;100004.28;5138160;27;8838;-61
2022/08/13 08:53:47;;;;;;;;;7.00;5.00;;;;;29.14;31.50;99997.09;5129140;27;8826;-61
2022/08/13 08:56:35;;;;;;;;;6.20;6.20;;;;;29.27;31.77;99994.94;5127934;27;8828;-61
2022/08/13 08:59:09;;;;;;;;;6.20;6.00;;;;;29.36;31.64;99996.22;5117064;28;8920;-63
2022/08/13 09:01:51;;;;;;;;;8.00;7.00;;;;;29.46;31.36;99988.22;5116072;28;8843;-62
2022/08/13 09:04:28;;;;;;;;;5.00;5.00;;;;;29.51;31.51;99988.34;5116705;28;8851;-62
2022/08/13 09:07:16;;;;;;;;;4.80;4.60;;;;;29.64;31.39;99981.78;5116701;28;9001;-63
2022/08/13 09:09:44;;;;;;;;;4.40;4.40;;;;;29.72;31.27;99987.69;5116781;28;8850;-62
2022/08/13 09:12:15;;;;;;;;;4.80;4.80;;;;;29.78;30.85;99989.47;5116696;28;8843;-61
2022/08/13 09:14:43;;;;;;;;;6.00;6.00;;;;;29.85;30.99;99975.56;5116972;28;8939;-61
2022/08/13 09:17:14;;;;;;;;;5.20;5.20;;;;;29.97;30.88;99970.88;5117502;28;9637;-60
2022/08/13 09:19:42;;;;;;;;;3.60;3.60;;;;;30.09;30.76;99972.50;5116262;28;8831;-61
2022/08/13 09:22:17;;;;;;;;;5.80;5.60;;;;;30.19;30.69;99975.44;5117186;28;8836;-61
2022/08/13 09:24:51;;;;;;;;;5.20;5.20;;;;;30.27;30.20;99974.19;5116968;27;8834;-61
2022/08/13 09:27:18;;;;;;;;;4.20;4.20;;;;;30.33;30.24;99971.28;5116581;28;8840;-61
2022/08/13 09:29:48;;;;;;;;;4.60;4.60;;;;;30.40;30.21;99977.44;5116369;28;8866;-62
2022/08/13 09:32:28;;;;;;;;;6.60;5.20;;;;;30.52;29.61;99958.97;5115912;28;8930;-62
2022/08/13 09:34:59;;;;;;;;;5.60;5.60;;;;;30.63;29.50;99963.56;5113279;28;8865;-61
2022/08/13 09:37:27;;;;;;;;;4.80;4.80;;;;;30.70;29.42;99974.41;5096004;28;8871;-62
2022/08/13 09:40:14;;;;;;;;;4.80;4.80;;;;;30.81;29.44;99968.81;5096576;28;8866;-61
2022/08/13 09:42:58;;;;;;;;;4.40;4.40;;;;;30.95;29.49;99970.97;5096160;28;8834;-61
2022/08/13 09:45:32;;;;;;;;;5.00;4.60;;;;;31.11;28.54;99961.00;5096092;28;8849;-61
2022/08/13 09:47:59;;;;;;;;;5.00;5.00;;;;;31.34;28.17;99964.38;5096357;28;8865;-61
2022/08/13 09:50:47;;;;;;;;;5.00;5.00;;;;;31.72;28.19;99966.28;5096162;28;8834;-61
2022/08/13 09:53:25;;;;;;;;;6.00;6.00;;;;;32.22;27.38;99950.25;5101464;28;8889;-61
2022/08/13 09:55:58;;;;;;;;;6.00;5.80;;;;;32.87;27.04;99950.84;5116602;28;8832;-61
2022/08/13 09:58:32;;;;;;;;;5.00;4.20;;;;;33.39;26.43;99949.75;5116390;28;8905;-61
2022/08/13 10:01:09;;;;;;;;;4.80;4.80;;;;;33.86;25.79;99946.91;5115617;28;8866;-62
2022/08/13 10:03:57;;;;;;;;;4.40;4.40;;;;;34.34;25.06;99949.25;5115958;28;8840;-61
2022/08/13 10:06:28;;;;;;;;;4.80;4.60;;;;;34.81;25.34;99933.19;5105150;28;8807;-61
2022/08/13 10:09:00;;;;;;;;;5.40;5.40;;;;;35.28;24.60;99936.41;5095132;28;9006;-62
2022/08/13 10:11:28;;;;;;;;;6.60;5.80;;;;;35.59;24.06;99930.47;5095686;28;8883;-62
2022/08/13 10:14:17;;;;;;;;;5.80;5.80;;;;;35.92;24.34;99935.28;5095684;28;8842;-61
2022/08/13 10:16:48;;;;;;;;;6.80;6.80;;;;;36.29;24.37;99930.06;5095625;28;8850;-62
2022/08/13 10:19:20;;;;;;;;;5.60;5.60;;;;;36.54;23.46;99933.47;5094892;28;8978;-62
2022/08/13 10:21:48;;;;;;;;;5.00;5.00;;;;;36.78;23.15;99928.00;5096431;28;8849;-61
2022/08/13 10:24:19;;;;;;;;;5.80;5.00;;;;;37.09;23.45;99924.63;5094544;28;8924;-62
2022/08/13 10:26:48;;;;;;;;;7.20;7.20;;;;;37.46;22.67;99924.72;5094723;28;8922;-62
2022/08/13 10:29:18;;;;;;;;;5.40;5.40;;;;;37.75;22.63;99911.56;5106435;28;8829;-62
2022/08/13 10:32:06;;;;;;;;;4.40;4.40;;;;;37.73;22.76;99916.59;5115627;28;8836;-62
2022/08/13 10:34:43;;;;;;;;;6.60;6.60;;;;;37.93;22.75;99909.91;5115608;28;8915;-61
2022/08/13 10:37:23;;;;;;;;;5.40;5.00;;;;;38.27;22.52;99907.72;5135755;27;8840;-62
2022/08/13 10:39:51;;;;;;;;;5.00;5.00;;;;;38.57;22.16;99908.06;5135984;27;8975;-62
2022/08/13 10:42:21;;;;;;;;;6.00;6.00;;;;;38.75;21.58;99906.34;5135643;27;8837;-62
2022/08/13 10:44:51;;;;;;;;;5.00;5.00;;;;;38.86;21.19;99899.47;5135308;27;8956;-62
2022/08/13 10:47:19;;;;;;;;;3.60;3.20;;;;;38.95;22.12;99908.75;5135427;27;8869;-62
2022/08/13 10:50:07;;;;;;;;;7.00;6.40;;;;;39.18;21.46;99903.00;5134796;27;9522;-62
2022/08/13 10:52:36;;;;;;;;;5.00;5.00;;;;;39.37;21.17;99903.75;5132235;27;8825;-63
2022/08/13 10:55:12;;;;;;;;;5.00;5.00;;;;;39.75;21.15;99895.97;5135268;27;8963;-62
2022/08/13 10:57:43;;;;;;;;;6.60;6.20;;;;;40.21;20.49;99900.19;5134955;27;8841;-61
2022/08/13 11:00:31;;;;;;;;;5.20;5.20;;;;;40.73;20.27;99888.25;5134536;27;8842;-62
2022/08/13 11:02:59;;;;;;;;;4.20;4.20;;;;;41.09;20.30;99883.31;5134948;27;8833;-62
2022/08/13 11:05:27;;;;;;;;;7.00;6.00;;;;;41.24;19.72;99885.66;5135734;27;8841;-62
2022/08/13 11:07:55;;;;;;;;;3.20;2.80;;;;;41.22;19.94;99882.38;5135853;27;8849;-62
2022/08/13 11:10:25;;;;;;;;;6.20;5.80;;;;;41.42;19.81;99887.41;5136040;27;8834;-62
2022/08/13 11:13:00;;;;;;;;;6.00;6.00;;;;;41.68;19.57;99884.66;5136000;27;8834;-62
2022/08/13 11:15:42;;;;;;;;;6.00;5.00;;;;;41.82;19.45;99879.75;5135955;27;8837;-62
2022/08/13 11:18:13;;;;;;;;;5.80;5.80;;;;;42.10;18.98;99873.50;5136050;27;8846;-62
2022/08/13 11:21:02;;;;;;;;;5.80;5.80;;;;;42.39;18.89;99874.47;5126864;28;8830;-62
2022/08/13 11:23:50;;;;;;;;;5.60;5.60;;;;;42.45;18.95;99872.31;5115168;28;8858;-63
2022/08/13 11:26:19;;;;;;;;;5.80;5.80;;;;;42.48;19.21;99871.66;5129204;27;8833;-62
2022/08/13 11:28:54;;;;;;;;;5.60;5.60;;;;;42.54;18.68;99870.38;5135333;27;8847;-62
2022/08/13 11:31:23;;;;;;;;;5.00;5.00;;;;;42.58;19.06;99872.16;5136179;27;9582;-65
2022/08/13 11:34:11;;;;;;;;;5.40;5.00;;;;;42.73;18.65;99862.38;5125488;27;8822;-63
2022/08/13 11:36:41;;;;;;;;;4.40;4.00;;;;;42.94;18.30;99858.53;5116190;28;8824;-63
2022/08/13 11:39:15;;;;;;;;;5.00;5.00;;;;;42.99;18.69;99869.56;5117246;28;8816;-62
2022/08/13 11:41:43;;;;;;;;;4.60;4.60;;;;;42.98;18.48;99865.13;5132926;27;8829;-62
2022/08/13 11:44:24;;;;;;;;;6.80;6.80;;;;;42.94;18.51;99857.72;5124479;27;8903;-62
2022/08/13 11:46:52;;;;;;;;;5.60;5.60;;;;;43.01;18.60;99849.59;5114675;28;8863;-64
2022/08/13 11:49:20;;;;;;;;;7.00;6.60;;;;;43.13;18.76;99847.72;5121387;27;9479;-62
2022/08/13 11:51:47;;;;;;;;;3.80;3.80;;;;;43.48;18.31;99845.53;5119196;27;8962;-62
2022/08/13 11:54:19;;;;;;;;;4.20;4.00;;;;;43.69;18.27;99836.00;5133045;27;8798;-62
2022/08/13 11:56:59;;;;;;;;;5.20;5.20;;;;;43.56;17.92;99841.84;5116042;28;8908;-62
2022/08/13 11:59:27;;;;;;;;;5.80;5.60;;;;;43.57;17.71;99840.69;5117237;28;8997;-62
2022/08/13 12:02:08;;;;;;;;;4.60;4.60;;;;;43.39;18.26;99839.16;5131291;27;8918;-65
2022/08/13 12:04:42;;;;;;;;;6.00;6.00;;;;;43.47;18.11;99835.47;5137495;27;8988;-62
2022/08/13 12:07:16;;;;;;;;;6.40;6.40;;;;;43.73;17.76;99838.94;5137010;27;8845;-61
2022/08/13 12:09:43;;;;;;;;;6.60;6.60;;;;;43.48;18.15;99835.16;5137231;27;8822;-62
2022/08/13 12:12:17;;;;;;;;;6.40;6.40;;;;;42.40;18.88;99836.06;5136837;27;8867;-62
2022/08/13 12:14:50;;;;;;;;;6.00;6.00;;;;;41.78;19.37;99831.97;5138244;27;8817;-62
2022/08/13 12:17:18;;;;;;;;;7.00;6.60;;;;;41.61;19.51;99834.75;5138602;27;8849;-63
2022/08/13 12:20:05;;;;;;;;;6.00;6.00;;;;;40.89;19.97;99838.31;5138457;27;8841;-62
2022/08/13 12:22:47;;;;;;;;;5.00;5.00;;;;;40.60;20.30;99830.47;5138866;27;9487;-62
2022/08/13 12:25:19;;;;;;;;;7.60;7.00;;;;;41.28;19.36;99832.69;5139450;27;8872;-63
2022/08/13 12:28:06;;;;;;;;;5.40;5.40;;;;;41.92;19.10;99827.03;5138822;27;8853;-62
2022/08/13 12:30:35;;;;;;;;;8.20;7.60;;;;;42.30;18.16;99828.00;5138766;27;8821;-62
2022/08/13 12:33:04;;;;;;;;;4.60;4.60;;;;;42.40;18.83;99817.25;5120277;27;8808;-62
2022/08/13 12:35:42;;;;;;;;;6.00;6.00;;;;;42.69;18.46;99811.75;5109997;28;9848;-62